createdAt,value
2022-09-06T00:00:14.093Z,16.70
2022-09-06T00:03:02.364Z,16.70
2022-09-06T00:05:52.281Z,16.70
2022-09-06T00:08:40.688Z,16.50
2022-09-06T00:11:28.243Z,16.70
2022-09-06T00:14:16.443Z,16.90
2022-09-06T00:17:04.154Z,16.70
2022-09-06T00:19:52.131Z,16.50
2022-09-06T00:22:41.288Z,16.50
2022-09-06T00:25:30.063Z,16.50
2022-09-06T00:28:18.994Z,16.50
2022-09-06T00:31:09.878Z,16.40
2022-09-06T00:33:58.203Z,16.40
2022-09-06T00:36:45.455Z,16.40
2022-09-06T00:39:35.413Z,16.40
2022-09-06T00:42:22.788Z,16.40
2022-09-06T00:45:12.298Z,16.40
2022-09-06T00:48:03.767Z,16.40
2022-09-06T00:50:53.153Z,16.40
2022-09-06T00:53:41.782Z,16.30
2022-09-06T00:56:31.808Z,16.40
2022-09-06T00:59:19.639Z,16.30
2022-09-06T01:02:09.502Z,16.30
2022-09-06T01:04:58.111Z,16.30
2022-09-06T01:07:50.282Z,16.90
2022-09-06T01:11:00.175Z,16.20
2022-09-06T01:13:52.107Z,16.10
2022-09-06T01:16:42.522Z,16.00
2022-09-06T01:19:52.387Z,16.00
2022-09-06T01:22:58.002Z,16.00
2022-09-06T01:25:49.737Z,16.00
2022-09-06T01:28:41.026Z,15.90
2022-09-06T01:31:32.503Z,15.90
2022-09-06T01:34:22.766Z,15.90
2022-09-06T01:37:12.061Z,15.90
2022-09-06T01:40:00.288Z,15.90
2022-09-06T01:42:49.790Z,15.90
2022-09-06T01:45:42.160Z,15.90
2022-09-06T01:48:35.607Z,15.80
2022-09-06T01:51:27.774Z,15.80
2022-09-06T01:54:27.643Z,15.90
2022-09-06T01:57:18.663Z,15.80
2022-09-06T02:00:09.349Z,15.80
2022-09-06T02:03:10.326Z,15.80
2022-09-06T02:06:00.686Z,15.80
2022-09-06T02:08:49.845Z,15.80
2022-09-06T02:11:41.153Z,15.70
2022-09-06T02:14:31.638Z,15.70
2022-09-06T02:17:21.096Z,15.70
2022-09-06T02:20:11.285Z,15.70
2022-09-06T02:23:01.741Z,15.70
2022-09-06T02:25:51.599Z,15.70
2022-09-06T02:28:39.147Z,15.70
2022-09-06T02:31:28.235Z,15.70
2022-09-06T02:34:17.677Z,15.70
2022-09-06T02:37:06.534Z,15.70
2022-09-06T02:39:56.170Z,15.60
2022-09-06T02:42:44.373Z,15.70
2022-09-06T02:45:32.993Z,15.60
2022-09-06T02:48:20.692Z,15.60
2022-09-06T02:51:10.327Z,15.60
2022-09-06T02:53:59.472Z,15.50
2022-09-06T02:56:51.982Z,15.50
2022-09-06T02:59:39.946Z,15.60
2022-09-06T03:02:27.594Z,15.50
2022-09-06T03:05:15.430Z,15.50
2022-09-06T03:08:03.673Z,15.50
2022-09-06T03:10:52.828Z,15.50
2022-09-06T03:13:40.254Z,15.50
2022-09-06T03:16:28.469Z,15.40
2022-09-06T03:19:16.762Z,15.50
2022-09-06T03:22:04.362Z,15.40
2022-09-06T03:24:52.465Z,15.90
2022-09-06T03:27:41.105Z,15.40
2022-09-06T03:30:28.652Z,15.40
2022-09-06T03:33:16.682Z,15.40
2022-09-06T03:36:04.579Z,15.30
2022-09-06T03:38:54.108Z,15.30
2022-09-06T03:41:42.361Z,15.30
2022-09-06T03:44:31.775Z,15.40
2022-09-06T03:47:19.880Z,15.40
2022-09-06T03:50:07.900Z,15.40
2022-09-06T03:52:55.580Z,15.40
2022-09-06T03:55:46.026Z,15.40
2022-09-06T03:58:34.187Z,15.30
2022-09-06T04:01:23.687Z,15.40
2022-09-06T04:04:11.004Z,15.40
2022-09-06T04:06:58.801Z,15.40
2022-09-06T04:09:46.277Z,15.30
2022-09-06T04:12:35.083Z,15.30
2022-09-06T04:15:23.332Z,15.30
2022-09-06T04:18:12.501Z,15.30
2022-09-06T04:21:00.357Z,15.30
2022-09-06T04:23:47.994Z,15.20
2022-09-06T04:26:36.285Z,15.20
2022-09-06T04:29:24.576Z,15.20
2022-09-06T04:32:13.081Z,15.20
2022-09-06T04:35:03.124Z,14.60
2022-09-06T04:37:50.587Z,15.20
2022-09-06T04:40:38.802Z,15.20
2022-09-06T04:43:27.020Z,15.10
2022-09-06T04:46:18.916Z,15.10
2022-09-06T04:49:07.093Z,15.20
2022-09-06T04:51:56.033Z,15.10
2022-09-06T04:54:44.271Z,15.10
2022-09-06T04:57:32.403Z,15.10
2022-09-06T05:00:20.056Z,15.10
2022-09-06T05:03:09.542Z,15.10
2022-09-06T05:06:05.403Z,15.10
2022-09-06T05:08:54.579Z,15.00
2022-09-06T05:11:42.507Z,15.00
2022-09-06T05:14:31.298Z,15.10
2022-09-06T05:17:19.375Z,15.50
2022-09-06T05:20:07.451Z,15.10
2022-09-06T05:22:55.834Z,15.70
2022-09-06T05:25:45.290Z,15.10
2022-09-06T05:28:33.204Z,15.10
2022-09-06T05:31:26.344Z,15.10
2022-09-06T05:34:15.319Z,15.20
2022-09-06T05:37:02.961Z,15.20
2022-09-06T05:39:51.057Z,15.20
2022-09-06T05:42:41.285Z,15.20
2022-09-06T05:45:29.857Z,15.20
2022-09-06T05:48:17.496Z,15.20
2022-09-06T05:51:05.778Z,15.20
2022-09-06T05:53:53.345Z,15.20
2022-09-06T05:56:40.616Z,15.20
2022-09-06T05:59:29.606Z,15.20
2022-09-06T06:02:17.028Z,15.20
2022-09-06T06:05:05.404Z,15.30
2022-09-06T06:07:55.702Z,15.30
2022-09-06T06:10:43.424Z,15.30
2022-09-06T06:13:35.093Z,14.00
2022-09-06T06:16:25.610Z,15.50
2022-09-06T06:19:14.927Z,15.40
2022-09-06T06:22:03.403Z,15.50
2022-09-06T06:24:50.854Z,15.70
2022-09-06T06:27:38.333Z,15.60
2022-09-06T06:30:26.301Z,15.60
2022-09-06T06:33:15.409Z,15.70
2022-09-06T06:36:04.624Z,15.70
2022-09-06T06:38:54.210Z,15.80
2022-09-06T06:41:41.603Z,15.90
2022-09-06T06:44:46.621Z,15.90
2022-09-06T06:47:35.478Z,15.90
2022-09-06T06:50:24.640Z,16.00
2022-09-06T06:53:12.165Z,16.00
2022-09-06T06:56:00.317Z,16.10
2022-09-06T06:58:49.524Z,16.10
2022-09-06T07:01:37.761Z,16.10
2022-09-06T07:04:25.553Z,16.20
2022-09-06T07:07:35.469Z,16.20
2022-09-06T07:10:33.094Z,16.30
2022-09-06T07:13:21.402Z,16.30
2022-09-06T07:16:10.297Z,16.40
2022-09-06T07:19:00.652Z,16.40
2022-09-06T07:21:48.283Z,16.50
2022-09-06T07:24:38.603Z,16.50
2022-09-06T07:30:37.665Z,16.70
2022-09-06T07:33:25.877Z,16.80
2022-09-06T07:36:13.410Z,16.80
2022-09-06T07:39:01.539Z,16.80
2022-09-06T07:41:50.888Z,16.80
2022-09-06T07:44:41.240Z,16.90
2022-09-06T07:50:52.615Z,16.90
2022-09-06T07:53:41.749Z,17.00
2022-09-06T07:56:30.382Z,16.90
2022-09-06T07:59:20.005Z,17.00
2022-09-06T08:02:08.001Z,17.00
2022-09-06T08:04:56.941Z,17.10
2022-09-06T08:07:44.494Z,17.10
2022-09-06T08:10:32.224Z,17.30
2022-09-06T08:13:20.472Z,17.40
2022-09-06T08:16:10.684Z,17.50
2022-09-06T08:19:00.046Z,17.50
2022-09-06T08:21:47.566Z,17.60
2022-09-06T08:24:36.703Z,17.70
2022-09-06T08:27:24.985Z,17.70
2022-09-06T08:30:14.545Z,17.70
2022-09-06T08:33:03.516Z,17.70
2022-09-06T08:35:57.807Z,17.70
2022-09-06T08:38:46.176Z,17.80
2022-09-06T08:41:37.617Z,17.90
2022-09-06T08:47:35.328Z,18.00
2022-09-06T08:50:26.038Z,18.20
2022-09-06T08:53:17.888Z,18.40
2022-09-06T08:56:13.392Z,18.50
2022-09-06T08:59:09.926Z,18.60
2022-09-06T09:02:04.766Z,18.60
2022-09-06T09:04:54.933Z,19.10
2022-09-06T09:07:45.660Z,20.20
2022-09-06T09:10:40.014Z,19.20
2022-09-06T09:13:37.342Z,19.50
2022-09-06T09:16:26.366Z,19.50
2022-09-06T09:19:14.945Z,19.70
2022-09-06T09:22:02.648Z,19.60
2022-09-06T09:24:52.747Z,20.10
2022-09-06T09:27:43.775Z,20.30
2022-09-06T09:30:48.339Z,20.50
2022-09-06T09:33:38.815Z,20.70
2022-09-06T09:36:26.520Z,20.70
2022-09-06T09:39:14.463Z,20.70
2022-09-06T09:42:03.935Z,20.80
2022-09-06T09:44:51.263Z,20.90
2022-09-06T09:47:38.984Z,21.00
2022-09-06T09:50:28.878Z,21.20
2022-09-06T09:53:18.272Z,21.40
2022-09-06T09:56:05.547Z,21.90
2022-09-06T09:58:56.109Z,22.30
2022-09-06T10:01:44.214Z,22.80
2022-09-06T10:04:48.997Z,23.20
2022-09-06T10:07:42.935Z,23.40
2022-09-06T10:10:33.320Z,23.40
2022-09-06T10:13:21.765Z,23.60
2022-09-06T10:16:11.590Z,23.50
2022-09-06T10:18:58.962Z,23.60
2022-09-06T10:21:46.645Z,23.50
2022-09-06T10:24:39.562Z,23.50
2022-09-06T10:27:27.630Z,23.50
2022-09-06T10:30:15.874Z,23.50
2022-09-06T10:33:09.888Z,23.40
2022-09-06T10:35:58.355Z,23.40
2022-09-06T10:38:50.994Z,23.60
2022-09-06T10:41:50.543Z,23.50
2022-09-06T10:44:48.736Z,23.50
2022-09-06T10:47:45.326Z,23.60
2022-09-06T10:50:39.713Z,23.60
2022-09-06T10:53:44.748Z,23.70
2022-09-06T10:56:35.018Z,23.80
2022-09-06T10:59:41.406Z,23.90
2022-09-06T11:02:36.143Z,24.00
2022-09-06T11:05:41.592Z,24.10
2022-09-06T11:08:51.204Z,24.20
2022-09-06T11:11:43.676Z,24.20
2022-09-06T11:14:32.297Z,24.20
2022-09-06T11:17:24.697Z,24.30
2022-09-06T11:20:15.129Z,24.30
2022-09-06T11:23:23.998Z,24.40
2022-09-06T11:26:32.228Z,24.40
2022-09-06T11:29:21.003Z,24.60
2022-09-06T11:32:28.947Z,24.70
2022-09-06T11:35:23.072Z,24.70
2022-09-06T11:38:19.919Z,24.90
2022-09-06T11:41:15.376Z,25.00
2022-09-06T11:44:05.148Z,25.10
2022-09-06T11:47:02.781Z,25.20
2022-09-06T11:49:50.797Z,25.40
2022-09-06T11:53:00.442Z,25.40
2022-09-06T11:55:49.475Z,25.40
2022-09-06T11:58:47.363Z,25.50
2022-09-06T12:01:38.035Z,25.50
2022-09-06T12:04:25.329Z,25.60
2022-09-06T12:07:13.577Z,25.70
2022-09-06T12:10:02.717Z,25.90
2022-09-06T12:12:52.694Z,25.80
2022-09-06T12:15:45.933Z,25.90
2022-09-06T12:18:52.155Z,25.90
2022-09-06T12:21:43.171Z,25.90
2022-09-06T12:24:49.357Z,26.00
2022-09-06T12:27:44.419Z,26.10
2022-09-06T12:30:32.987Z,26.00
2022-09-06T12:33:23.575Z,26.30
2022-09-06T12:36:14.990Z,26.40
2022-09-06T12:39:05.432Z,26.60
2022-09-06T12:41:56.022Z,26.70
2022-09-06T12:44:44.036Z,26.90
2022-09-06T12:47:32.711Z,26.80
2022-09-06T12:50:22.081Z,27.00
2022-09-06T12:53:23.333Z,27.00
2022-09-06T12:56:13.540Z,27.10
2022-09-06T12:59:17.072Z,27.10
2022-09-06T13:02:06.800Z,27.10
2022-09-06T13:04:56.488Z,27.10
2022-09-06T13:07:46.026Z,27.20
2022-09-06T13:10:34.527Z,27.30
2022-09-06T13:13:24.504Z,27.40
2022-09-06T13:16:12.285Z,27.40
2022-09-06T13:19:11.989Z,27.40
2022-09-06T13:22:00.423Z,27.50
2022-09-06T13:24:49.154Z,27.50
2022-09-06T13:27:36.916Z,27.60
2022-09-06T13:30:33.792Z,27.60
2022-09-06T13:33:24.795Z,27.80
2022-09-06T13:36:21.910Z,27.80
2022-09-06T13:39:09.926Z,27.80
2022-09-06T13:41:57.692Z,27.80
2022-09-06T13:44:45.008Z,27.90
2022-09-06T13:47:33.917Z,27.80
2022-09-06T13:50:27.237Z,27.90
2022-09-06T13:53:20.471Z,27.90
2022-09-06T13:56:08.881Z,28.10
2022-09-06T13:58:56.752Z,28.20
2022-09-06T14:01:46.862Z,28.40
2022-09-06T14:04:36.765Z,28.50
2022-09-06T14:07:24.053Z,28.60
2022-09-06T14:10:12.629Z,28.70
2022-09-06T14:13:00.373Z,28.80
2022-09-06T14:15:48.154Z,28.80
2022-09-06T14:18:35.661Z,28.90
2022-09-06T14:21:24.126Z,28.70
2022-09-06T14:24:11.437Z,28.40
2022-09-06T14:26:59.151Z,28.10
2022-09-06T14:29:46.755Z,28.20
2022-09-06T14:32:34.561Z,28.30
2022-09-06T14:35:22.250Z,28.40
2022-09-06T14:38:11.521Z,28.50
2022-09-06T14:41:03.652Z,28.40
2022-09-06T14:43:52.104Z,28.20
2022-09-06T14:46:40.074Z,28.00
2022-09-06T14:49:28.356Z,27.50
2022-09-06T14:52:16.458Z,27.30
2022-09-06T14:55:05.270Z,27.20
2022-09-06T14:57:52.842Z,27.20
2022-09-06T15:00:41.981Z,27.00
2022-09-06T15:03:29.109Z,26.90
2022-09-06T15:06:17.538Z,26.90
2022-09-06T15:09:05.476Z,26.90
2022-09-06T15:11:54.554Z,26.90
2022-09-06T15:14:42.180Z,26.90
2022-09-06T15:17:29.919Z,26.80
2022-09-06T15:20:17.672Z,26.70
2022-09-06T15:26:13.740Z,26.50
2022-09-06T15:29:03.196Z,26.60
2022-09-06T15:31:51.930Z,26.60
2022-09-06T15:34:39.122Z,26.50
2022-09-06T15:37:26.297Z,26.50
2022-09-06T15:40:14.283Z,26.40
2022-09-06T15:43:03.253Z,26.40
2022-09-06T15:45:51.902Z,26.30
2022-09-06T15:48:41.587Z,26.20
2022-09-06T15:51:29.861Z,26.20
2022-09-06T15:54:18.855Z,26.10
2022-09-06T15:57:06.760Z,26.00
2022-09-06T15:59:54.182Z,25.90
2022-09-06T16:02:43.494Z,25.90
2022-09-06T16:08:39.738Z,25.90
2022-09-06T16:11:28.072Z,25.80
2022-09-06T16:14:16.616Z,25.80
2022-09-06T16:17:04.833Z,25.80
2022-09-06T16:19:54.003Z,25.80
2022-09-06T16:22:41.797Z,25.80
2022-09-06T16:25:32.069Z,26.00
2022-09-06T16:28:19.305Z,26.10
2022-09-06T16:31:08.315Z,26.30
2022-09-06T16:33:56.510Z,26.30
2022-09-06T16:36:45.546Z,26.30
2022-09-06T16:39:33.331Z,26.30
2022-09-06T16:42:21.650Z,26.20
2022-09-06T16:45:10.359Z,26.20
2022-09-06T16:47:58.407Z,26.40
2022-09-06T16:50:46.784Z,26.40
2022-09-06T16:53:36.376Z,26.40
2022-09-06T16:56:25.009Z,26.50
2022-09-06T16:59:15.277Z,26.50
2022-09-06T17:02:03.297Z,26.50
2022-09-06T17:04:50.887Z,26.60
2022-09-06T17:07:38.806Z,26.60
2022-09-06T17:10:28.161Z,26.50
2022-09-06T17:13:15.799Z,26.30
2022-09-06T17:16:22.502Z,25.80
2022-09-06T17:19:10.895Z,25.50
2022-09-06T17:21:58.917Z,25.30
2022-09-06T17:24:49.997Z,24.90
2022-09-06T17:27:38.549Z,24.70
2022-09-06T17:30:27.293Z,24.50
2022-09-06T17:33:17.068Z,24.20
2022-09-06T17:36:08.489Z,24.00
2022-09-06T17:39:00.748Z,24.00
2022-09-06T17:41:50.018Z,23.80
2022-09-06T17:44:39.100Z,23.80
2022-09-06T17:47:26.922Z,23.80
2022-09-06T17:50:14.652Z,23.80
2022-09-06T17:53:02.984Z,23.80
2022-09-06T17:55:52.271Z,23.80
2022-09-06T17:58:40.615Z,23.90
2022-09-06T18:01:30.621Z,23.90
2022-09-06T18:04:19.601Z,23.90
2022-09-06T18:07:07.508Z,23.80
2022-09-06T18:09:55.035Z,23.70
2022-09-06T18:12:42.302Z,23.60
2022-09-06T18:15:30.304Z,23.40
2022-09-06T18:18:19.774Z,23.30
2022-09-06T18:21:07.818Z,23.20
2022-09-06T18:23:55.351Z,23.10
2022-09-06T18:26:42.737Z,23.10
2022-09-06T18:29:30.223Z,22.90
2022-09-06T18:32:17.453Z,22.80
2022-09-06T18:35:06.671Z,22.70
2022-09-06T18:37:54.754Z,22.70
2022-09-06T18:40:50.859Z,22.60
2022-09-06T18:43:39.821Z,22.50
2022-09-06T18:46:27.862Z,22.40
2022-09-06T18:49:15.678Z,22.40
2022-09-06T18:52:06.286Z,22.30
2022-09-06T18:54:53.955Z,22.30
2022-09-06T18:57:41.486Z,22.20
2022-09-06T19:00:29.709Z,22.30
2022-09-06T19:03:17.011Z,22.10
2022-09-06T19:06:05.071Z,22.00
2022-09-06T19:08:54.457Z,21.90
2022-09-06T19:11:43.609Z,21.90
2022-09-06T19:14:31.220Z,21.80
2022-09-06T19:17:18.543Z,21.80
2022-09-06T19:20:06.721Z,21.80
2022-09-06T19:22:54.750Z,21.70
2022-09-06T19:25:44.233Z,21.70
2022-09-06T19:28:31.629Z,21.70
2022-09-06T19:31:19.372Z,21.60
2022-09-06T19:34:07.507Z,21.60
2022-09-06T19:36:55.545Z,21.60
2022-09-06T19:39:43.221Z,21.50
2022-09-06T19:42:31.674Z,21.40
2022-09-06T19:45:19.419Z,21.50
2022-09-06T19:48:07.430Z,21.50
2022-09-06T19:50:56.184Z,21.60
2022-09-06T19:54:01.427Z,21.60
2022-09-06T19:56:49.525Z,21.50
2022-09-06T19:59:37.054Z,21.40
2022-09-06T20:02:29.499Z,21.50
2022-09-06T20:05:19.538Z,21.40
2022-09-06T20:08:07.578Z,21.40
2022-09-06T20:10:58.094Z,21.30
2022-09-06T20:13:45.809Z,21.20
2022-09-06T20:16:36.115Z,21.20
2022-09-06T20:19:27.522Z,21.10
2022-09-06T20:22:14.952Z,21.10
2022-09-06T20:25:03.132Z,21.10
2022-09-06T20:27:51.950Z,21.10
2022-09-06T20:30:43.389Z,21.00
2022-09-06T20:33:31.073Z,21.00
2022-09-06T20:36:19.423Z,20.90
2022-09-06T20:39:06.976Z,20.90
2022-09-06T20:41:54.827Z,20.90
2022-09-06T20:44:43.718Z,20.90
2022-09-06T20:47:31.310Z,20.80
2022-09-06T20:50:19.243Z,20.80
2022-09-06T20:53:06.888Z,20.80
2022-09-06T20:55:58.514Z,20.80
2022-09-06T20:58:49.388Z,20.70
2022-09-06T21:01:40.321Z,20.70
2022-09-06T21:04:27.889Z,20.60
2022-09-06T21:07:15.355Z,20.60
2022-09-06T21:10:03.731Z,20.40
2022-09-06T21:12:51.302Z,20.30
2022-09-06T21:15:41.172Z,20.20
2022-09-06T21:18:31.619Z,20.10
2022-09-06T21:21:19.971Z,19.90
2022-09-06T21:24:07.925Z,19.70
2022-09-06T21:26:55.043Z,19.50
2022-09-06T21:29:42.767Z,19.40
2022-09-06T21:32:30.695Z,19.20
2022-09-06T21:35:19.662Z,19.10
2022-09-06T21:38:07.969Z,18.90
2022-09-06T21:40:55.443Z,18.90
2022-09-06T21:43:43.543Z,18.80
2022-09-06T21:46:33.649Z,18.80
2022-09-06T21:49:22.330Z,18.70
2022-09-06T21:52:11.109Z,18.60
2022-09-06T21:54:59.548Z,18.30
2022-09-06T21:57:51.974Z,18.20
2022-09-06T22:00:40.931Z,18.00
2022-09-06T22:03:29.868Z,17.80
2022-09-06T22:06:19.073Z,17.70
2022-09-06T22:09:11.057Z,17.50
2022-09-06T22:11:58.674Z,17.50
2022-09-06T22:14:47.593Z,17.40
2022-09-06T22:17:35.168Z,17.30
2022-09-06T22:20:23.210Z,17.30
2022-09-06T22:23:11.433Z,17.40
2022-09-06T22:26:04.755Z,17.30
2022-09-06T22:28:54.835Z,17.30
2022-09-06T22:31:42.995Z,17.30
2022-09-06T22:34:31.181Z,17.30
2022-09-06T22:37:19.189Z,18.10
2022-09-06T22:40:07.878Z,17.10
2022-09-06T22:42:57.133Z,17.10
2022-09-06T22:45:49.814Z,17.10
2022-09-06T22:48:39.858Z,17.00
2022-09-06T22:51:27.279Z,17.10
2022-09-06T22:54:14.920Z,17.00
2022-09-06T22:57:05.310Z,17.00
2022-09-06T22:59:54.612Z,17.00
2022-09-06T23:02:42.734Z,17.00
2022-09-06T23:05:31.867Z,17.00
2022-09-06T23:08:19.474Z,17.00
2022-09-06T23:11:08.126Z,17.10
2022-09-06T23:13:56.488Z,17.00
2022-09-06T23:16:45.455Z,17.00
2022-09-06T23:19:33.400Z,16.90
2022-09-06T23:22:21.305Z,16.90
2022-09-06T23:25:10.502Z,16.80
2022-09-06T23:27:59.221Z,16.80
2022-09-06T23:30:47.215Z,16.90
2022-09-06T23:33:37.035Z,16.90
2022-09-06T23:36:24.907Z,16.90
2022-09-06T23:39:12.194Z,16.90
2022-09-06T23:41:59.786Z,16.90
2022-09-06T23:44:47.134Z,16.90
2022-09-06T23:47:35.137Z,16.90
2022-09-06T23:50:24.501Z,16.90
2022-09-06T23:53:11.810Z,16.90
2022-09-06T23:55:59.234Z,16.90
2022-09-06T23:58:46.756Z,16.80
